Flight Track Log - Related Links

Times and Time Zones

All times are in EST time to prevent confusion due to time zone crossing. See the ASQ5941 flight status page for this flight to view local times or setup timezone preferences in your user account.

Time Position Orientation Groundspeed Altitude Reporting Facility
EST Latitude Longitude Course Direction KTS MPH feet Rate Location/Type
Wed 03:56:46 PM 42.0000 -87.9333 26° Northeast 153 176 1,900  Level Chicago TRACON
Wed 03:57:47 PM 42.0500 -87.9000 26° Northeast 229 264 3,900 1,983 Climbing Chicago TRACON
Wed 03:58:47 PM 42.1000 -87.8333 45° Northeast 283 326 5,900 2,133 Climbing Chicago TRACON
Wed 04:00:33 PM 42.1036 -87.6317 89° East 306 352 9,800 2,107 Climbing Chicago Center
Wed 04:01:35 PM 42.1058 -87.5100 89° East 320 368 11,800 1,500 Climbing Chicago Center
Wed 04:02:37 PM 42.1089 -87.3803 88° East 341 392 12,900 1,016 Climbing Chicago Center
Wed 04:03:39 PM 42.1106 -87.2336 89° East 380 437 13,900 968 Climbing Chicago Center
Wed 04:04:41 PM 42.1131 -87.0808 89° East 404 465 14,900 1,065 Climbing Chicago Center
Wed 04:05:43 PM 42.1164 -86.9211 88° East 423 487 16,100 1,355 Climbing Chicago Center
Wed 04:06:45 PM 42.1242 -86.7317 87° East 423 487 17,700 1,210 Climbing Chicago Center
Wed 04:07:47 PM 42.1275 -86.5822 88° East 434 499 18,600 871 Climbing Chicago Center
Wed 04:08:49 PM 42.1283 -86.4150 90° East 444 511 19,500 816 Climbing Chicago Center
Wed 04:09:52 PM 42.1294 -86.2444 89° East 453 521 20,300 864 Climbing Chicago Center
Wed 04:10:54 PM 42.1297 -86.0306 90° East 471 542 21,300 1,065 Climbing Chicago Center
Wed 04:11:56 PM 42.1317 -85.8639 89° East 482 555 22,500 1,210 Climbing Chicago Center
Wed 04:12:58 PM 42.1319 -85.6867 90° East 478 550 23,800 1,355 Climbing Chicago Center
Wed 04:14:00 PM 42.1331 -85.4736 90° East 478 550 25,300 1,403 Climbing Chicago Center
Wed 04:15:02 PM 42.1322 -85.2986 90° East 472 543 26,700 1,355 Climbing Chicago Center
Wed 04:16:04 PM 42.1342 -85.1247 89° East 468 539 28,100 1,161 Climbing Chicago Center
Wed 04:17:06 PM 42.1333 -84.9558 90° East 461 531 29,100 968 Climbing Chicago Center
Wed 04:18:08 PM 42.1292 -84.7853 92° East 459 528 30,100 1,065 Climbing Chicago Center
Wed 04:19:10 PM 42.1258 -84.6136 91° East 460 529 31,300 1,306 Climbing Chicago Center
Wed 04:20:12 PM 42.1306 -84.4094 88° East 462 532 32,800 1,286 Climbing Chicago Center
Wed 04:20:48 PM 42.1408 -84.3097 82° East 458 527 33,400 980 Climbing Cleveland Center
Wed 04:21:50 PM 42.1606 -84.1389 81° East 460 529 34,400 774 Climbing Cleveland Center
Wed 04:22:52 PM 42.1789 -83.9669 82° East 464 534 35,000 290 Climbing Cleveland Center
Wed 04:23:54 PM 42.1983 -83.7886 82° East 481 554 35,000  Level Cleveland Center
Wed 04:24:57 PM 42.2189 -83.6006 82° East 503 579 35,000  Level Cleveland Center
Wed 04:25:59 PM 42.2311 -83.3969 85° East 517 595 35,000  Level Cleveland Center
Wed 04:27:01 PM 42.2319 -83.1900 90° East 521 600 35,000  Level Cleveland Center
Wed 04:28:03 PM 42.2331 -82.9961 89° East 521 600 35,000  Level Cleveland Center
Wed 04:29:05 PM 42.2336 -82.7622 90° East 521 600 35,000  Level Cleveland Center
Wed 04:30:07 PM 42.2344 -82.6078 90° East 520 598 35,000  Level Cleveland Center
Wed 04:31:09 PM 42.2347 -82.3744 90° East 520 598 35,000  Level Cleveland Center
Wed 04:32:11 PM 42.2350 -82.1806 90° East 520 598 35,000  Level Cleveland Center
Wed 04:33:14 PM 42.2339 -81.9844 90° East 520 598 35,000  Level Cleveland Center
Wed 04:34:16 PM 42.2325 -81.7536 90° East 520 598 35,000  Level Cleveland Center
Wed 04:35:18 PM 42.2314 -81.5569 90° East 520 598 35,000  Level Cleveland Center
Wed 04:36:20 PM 42.2308 -81.3897 90° East 522 601 35,000  Level Cleveland Center
Wed 04:37:22 PM 42.2283 -81.1586 91° East 522 601 35,000  Level Cleveland Center
Wed 04:38:24 PM 42.2250 -80.9606 91° East 522 601 35,000  Level Cleveland Center
Wed 04:39:26 PM 42.2231 -80.7611 91° East 523 602 35,000  Level Cleveland Center
Wed 04:40:28 PM 42.2047 -80.5653 97° East 523 602 35,000  Level Cleveland Center
Wed 04:41:31 PM 42.1800 -80.3672 99° East 527 606 35,000  Level Cleveland Center
Wed 04:42:33 PM 42.1511 -80.1386 100° East 527 606 35,000  Level Cleveland Center
Wed 04:43:35 PM 42.1283 -79.9703 100° East 528 608 35,000  Level Cleveland Center
Wed 04:44:37 PM 42.0972 -79.7372 100° East 528 608 35,000  Level Cleveland Center
Wed 04:45:39 PM 42.0706 -79.5428 100° East 529 609 35,000 -336 Level Cleveland Center
Wed 04:46:42 PM 42.0439 -79.3458 100° East 532 612 34,300 -581 Descending Cleveland Center
Wed 04:47:43 PM 42.0167 -79.1531 101° East 527 606 33,800 -634 Descending Cleveland Center
Wed 04:48:45 PM 41.9908 -78.9628 100° East 521 600 33,000 -864 Descending Cleveland Center
Wed 04:49:48 PM 41.9631 -78.7706 101° East 521 600 32,000 -1,056 Descending Cleveland Center
Wed 04:50:50 PM 41.9297 -78.5394 101° East 525 604 30,800 -1,452 Descending Cleveland Center
Wed 04:51:52 PM 41.9017 -78.3461 101° East 525 604 29,000 -1,790 Descending Cleveland Center
Wed 04:52:54 PM 41.8731 -78.1519 101° East 527 606 27,100 -1,839 Descending Cleveland Center
Wed 04:53:56 PM 41.8444 -77.9594 101° East 527 606 25,200 -1,597 Descending Cleveland Center
Wed 04:54:58 PM 41.8147 -77.7669 102° East 528 608 23,800 -1,008 Descending Cleveland Center
Wed 04:56:01 PM 41.7853 -77.5817 102° East 518 596 23,100 -435 Descending Cleveland Center
Wed 04:57:02 PM 41.7517 -77.3647 102° East 508 585 22,900 -971 Descending Cleveland Center
Wed 04:58:17 PM 41.7153 -77.1344 102° East 513 590 20,900 -1,778 Descending New York Center
Wed 04:59:17 PM 41.6872 -76.9567 102° East 500 575 18,900 -2,250 Descending New York Center
Wed 05:00:17 PM 41.6625 -76.7933 101° East 475 547 16,400 -2,500 Descending New York Center
Wed 05:01:17 PM 41.6328 -76.6381 104° East 448 516 13,900 -2,200 Descending New York Center
Wed 05:02:17 PM 41.6106 -76.4919 101° East 418 481 12,000 -1,650 Descending New York Center
Wed 05:03:17 PM 41.5897 -76.3625 102° East 376 433 10,600 -1,300 Descending New York Center
Wed 05:04:17 PM 41.5736 -76.2614 102° East 325 374 9,400 -1,450 Descending New York Center
Wed 05:05:17 PM 41.5392 -76.1475 112° Southeast 300 345 7,700 -1,350 Descending New York Center
Wed 05:06:17 PM 41.4861 -76.0769 135° Southeast 276 318 6,700 -950 Descending New York Center
Wed 05:07:17 PM 41.4350 -76.0092 135° Southeast 265 305 5,800 -893 Descending New York Center
Wed 05:08:18 PM 41.3828 -75.9636 147° Southeast 259 298 4,900 -800 Descending New York Center
Wed 05:09:17 PM 41.3267 -75.9153 147° Southeast 254 292 4,200 -655 Descending New York Center
Wed 05:10:17 PM 41.2786 -75.8700 145° Southeast 236 272 3,600 -550 Descending New York Center
Wed 05:11:17 PM 41.2542 -75.8103 119° Southeast 169 194 3,100 -650 Descending New York Center
Wed 05:12:17 PM 41.2783 -75.7761 47° Northeast 121 139 2,300 -750 Descending New York Center
Wed 05:13:17 PM 41.3067 -75.7506 34° Northeast 115 132 1,600 -600 Descending New York Center
Wed 05:14:17 PM 41.3311 -75.7136 49° Northeast 115 132 1,100 3,700 Descending New York Center
Wed 05:15:17 PM 41.3533 -75.6822 47° Northeast 115 132 9,000 3,950 Climbing New York Center
Wed 05:16:17 PM 41.3756 -75.6478 49° Northeast 115 132 9,000  Level New York Center
Wed 05:18:00 PM 41.3333 -75.7167 242° Southwest  Level FlightAware Approximate
Wed 05:25:00 PM 41.3385 -75.7234 242° Southwest  Level Estimated

Login

Don't have an account? Register now (free) for customized features, flight alerts, and more!